sensor_id;sensor_type;location;lat;lon;timestamp;temperature;humidity
73277;DHT22;61501;43.316;5.372;2022-07-03T00:02:03;24.40;29.40
73277;DHT22;61501;43.316;5.372;2022-07-03T00:04:28;24.40;29.90
73277;DHT22;61501;43.316;5.372;2022-07-03T00:06:54;24.40;30.00
73277;DHT22;61501;43.316;5.372;2022-07-03T00:09:20;24.40;30.20
73277;DHT22;61501;43.316;5.372;2022-07-03T00:11:46;24.40;29.80
73277;DHT22;61501;43.316;5.372;2022-07-03T00:14:12;24.40;28.60
73277;DHT22;61501;43.316;5.372;2022-07-03T00:16:38;24.40;28.10
73277;DHT22;61501;43.316;5.372;2022-07-03T00:19:04;24.30;29.00
73277;DHT22;61501;43.316;5.372;2022-07-03T00:21:34;24.20;29.00
73277;DHT22;61501;43.316;5.372;2022-07-03T00:24:08;24.30;30.00
73277;DHT22;61501;43.316;5.372;2022-07-03T00:26:38;24.30;29.90
73277;DHT22;61501;43.316;5.372;2022-07-03T00:29:05;24.30;30.20
73277;DHT22;61501;43.316;5.372;2022-07-03T00:31:32;24.30;30.90
73277;DHT22;61501;43.316;5.372;2022-07-03T00:34:00;24.20;30.40
73277;DHT22;61501;43.316;5.372;2022-07-03T00:36:36;24.30;30.60
73277;DHT22;61501;43.316;5.372;2022-07-03T00:39:03;24.30;30.30
73277;DHT22;61501;43.316;5.372;2022-07-03T00:41:31;24.20;30.20
73277;DHT22;61501;43.316;5.372;2022-07-03T00:43:57;24.20;30.90
73277;DHT22;61501;43.316;5.372;2022-07-03T00:46:24;24.20;29.90
73277;DHT22;61501;43.316;5.372;2022-07-03T00:48:52;24.10;30.00
73277;DHT22;61501;43.316;5.372;2022-07-03T00:51:24;24.10;30.50
73277;DHT22;61501;43.316;5.372;2022-07-03T00:53:53;24.10;29.80
73277;DHT22;61501;43.316;5.372;2022-07-03T00:56:29;24.10;29.60
73277;DHT22;61501;43.316;5.372;2022-07-03T00:59:00;24.10;30.60
73277;DHT22;61501;43.316;5.372;2022-07-03T01:01:30;24.10;30.10
73277;DHT22;61501;43.316;5.372;2022-07-03T01:06:46;24.10;29.70
73277;DHT22;61501;43.316;5.372;2022-07-03T01:09:14;24.10;29.20
73277;DHT22;61501;43.316;5.372;2022-07-03T01:12:07;24.10;29.20
73277;DHT22;61501;43.316;5.372;2022-07-03T01:17:06;24.10;29.70
73277;DHT22;61501;43.316;5.372;2022-07-03T01:22:37;24.00;29.60
73277;DHT22;61501;43.316;5.372;2022-07-03T01:28:06;24.00;27.30
73277;DHT22;61501;43.316;5.372;2022-07-03T01:30:51;24.00;28.10
73277;DHT22;61501;43.316;5.372;2022-07-03T01:33:30;24.00;28.50
73277;DHT22;61501;43.316;5.372;2022-07-03T01:38:28;23.90;27.90
73277;DHT22;61501;43.316;5.372;2022-07-03T01:40:55;23.90;28.50
73277;DHT22;61501;43.316;5.372;2022-07-03T01:43:27;23.90;29.00
73277;DHT22;61501;43.316;5.372;2022-07-03T01:45:53;23.90;28.30
73277;DHT22;61501;43.316;5.372;2022-07-03T01:48:21;23.90;27.50
73277;DHT22;61501;43.316;5.372;2022-07-03T01:50:49;23.80;27.30
73277;DHT22;61501;43.316;5.372;2022-07-03T01:53:16;23.80;28.60
73277;DHT22;61501;43.316;5.372;2022-07-03T01:55:43;23.80;29.00
73277;DHT22;61501;43.316;5.372;2022-07-03T01:58:10;23.80;29.30
73277;DHT22;61501;43.316;5.372;2022-07-03T02:01:06;23.80;29.10
73277;DHT22;61501;43.316;5.372;2022-07-03T02:03:35;23.80;29.30
73277;DHT22;61501;43.316;5.372;2022-07-03T02:06:11;23.90;29.20
73277;DHT22;61501;43.316;5.372;2022-07-03T02:11:18;23.80;29.40
73277;DHT22;61501;43.316;5.372;2022-07-03T02:16:22;23.90;29.10
73277;DHT22;61501;43.316;5.372;2022-07-03T02:18:55;23.80;29.80
73277;DHT22;61501;43.316;5.372;2022-07-03T02:21:26;23.80;30.50
73277;DHT22;61501;43.316;5.372;2022-07-03T02:26:38;23.90;31.10
73277;DHT22;61501;43.316;5.372;2022-07-03T02:29:06;23.80;30.10
73277;DHT22;61501;43.316;5.372;2022-07-03T02:31:42;23.90;29.40
73277;DHT22;61501;43.316;5.372;2022-07-03T02:34:13;23.80;30.00
73277;DHT22;61501;43.316;5.372;2022-07-03T02:36:40;23.80;29.10
73277;DHT22;61501;43.316;5.372;2022-07-03T02:39:23;23.80;29.10
73277;DHT22;61501;43.316;5.372;2022-07-03T02:41:57;23.70;29.10
73277;DHT22;61501;43.316;5.372;2022-07-03T02:44:43;23.70;28.90
73277;DHT22;61501;43.316;5.372;2022-07-03T02:55:17;23.70;29.40
73277;DHT22;61501;43.316;5.372;2022-07-03T02:58:02;23.70;29.20
73277;DHT22;61501;43.316;5.372;2022-07-03T03:00:35;23.80;29.90
73277;DHT22;61501;43.316;5.372;2022-07-03T03:03:02;23.80;31.50
73277;DHT22;61501;43.316;5.372;2022-07-03T03:05:40;23.80;30.80
73277;DHT22;61501;43.316;5.372;2022-07-03T03:10:48;23.80;29.80
73277;DHT22;61501;43.316;5.372;2022-07-03T03:13:15;23.70;30.70
73277;DHT22;61501;43.316;5.372;2022-07-03T03:18:34;23.60;31.60
73277;DHT22;61501;43.316;5.372;2022-07-03T03:21:03;23.70;32.40
73277;DHT22;61501;43.316;5.372;2022-07-03T03:23:45;23.70;32.60
73277;DHT22;61501;43.316;5.372;2022-07-03T03:26:18;23.70;33.10
73277;DHT22;61501;43.316;5.372;2022-07-03T03:28:44;23.70;32.80
73277;DHT22;61501;43.316;5.372;2022-07-03T03:31:10;23.60;32.70
73277;DHT22;61501;43.316;5.372;2022-07-03T03:33:44;23.60;32.80
73277;DHT22;61501;43.316;5.372;2022-07-03T03:36:10;23.60;31.10
73277;DHT22;61501;43.316;5.372;2022-07-03T03:38:37;23.60;31.70
73277;DHT22;61501;43.316;5.372;2022-07-03T03:41:03;23.50;32.00
73277;DHT22;61501;43.316;5.372;2022-07-03T03:43:30;23.50;32.50
73277;DHT22;61501;43.316;5.372;2022-07-03T03:45:56;23.50;30.90
73277;DHT22;61501;43.316;5.372;2022-07-03T03:48:21;23.50;31.80
73277;DHT22;61501;43.316;5.372;2022-07-03T03:50:47;23.50;32.10
73277;DHT22;61501;43.316;5.372;2022-07-03T03:53:14;23.50;32.60
73277;DHT22;61501;43.316;5.372;2022-07-03T03:58:33;23.50;31.40
73277;DHT22;61501;43.316;5.372;2022-07-03T04:01:00;23.60;31.70
73277;DHT22;61501;43.316;5.372;2022-07-03T04:03:28;23.60;32.00
73277;DHT22;61501;43.316;5.372;2022-07-03T04:05:54;23.60;32.10
73277;DHT22;61501;43.316;5.372;2022-07-03T04:08:21;23.60;31.90
73277;DHT22;61501;43.316;5.372;2022-07-03T04:10:47;23.60;32.50
73277;DHT22;61501;43.316;5.372;2022-07-03T04:13:13;23.60;32.50
73277;DHT22;61501;43.316;5.372;2022-07-03T04:15:39;23.60;33.00
73277;DHT22;61501;43.316;5.372;2022-07-03T04:18:05;23.60;31.00
73277;DHT22;61501;43.316;5.372;2022-07-03T04:20:31;23.60;32.10
73277;DHT22;61501;43.316;5.372;2022-07-03T04:22:58;23.60;31.50
73277;DHT22;61501;43.316;5.372;2022-07-03T04:25:24;23.60;31.80
73277;DHT22;61501;43.316;5.372;2022-07-03T04:27:49;23.60;32.50
73277;DHT22;61501;43.316;5.372;2022-07-03T04:30:15;23.70;31.80
73277;DHT22;61501;43.316;5.372;2022-07-03T04:32:41;23.70;32.60
73277;DHT22;61501;43.316;5.372;2022-07-03T04:35:07;23.70;32.30
73277;DHT22;61501;43.316;5.372;2022-07-03T04:37:33;23.70;31.50
73277;DHT22;61501;43.316;5.372;2022-07-03T04:39:59;23.60;31.80
73277;DHT22;61501;43.316;5.372;2022-07-03T04:42:24;23.70;32.50
73277;DHT22;61501;43.316;5.372;2022-07-03T04:44:50;23.70;32.80
73277;DHT22;61501;43.316;5.372;2022-07-03T04:47:16;23.80;32.60
73277;DHT22;61501;43.316;5.372;2022-07-03T04:49:42;23.80;31.20
73277;DHT22;61501;43.316;5.372;2022-07-03T04:52:08;23.80;31.60
73277;DHT22;61501;43.316;5.372;2022-07-03T04:54:34;23.80;30.10
73277;DHT22;61501;43.316;5.372;2022-07-03T04:57:00;23.80;31.90
73277;DHT22;61501;43.316;5.372;2022-07-03T04:59:26;23.90;31.30
73277;DHT22;61501;43.316;5.372;2022-07-03T05:01:51;24.00;31.70
73277;DHT22;61501;43.316;5.372;2022-07-03T05:04:17;24.10;31.40
73277;DHT22;61501;43.316;5.372;2022-07-03T05:06:43;24.10;31.50
73277;DHT22;61501;43.316;5.372;2022-07-03T05:09:09;24.20;30.20
73277;DHT22;61501;43.316;5.372;2022-07-03T05:11:35;24.20;31.10
73277;DHT22;61501;43.316;5.372;2022-07-03T05:14:04;24.30;32.00
73277;DHT22;61501;43.316;5.372;2022-07-03T05:16:30;24.40;31.80
73277;DHT22;61501;43.316;5.372;2022-07-03T05:18:56;24.40;29.70
73277;DHT22;61501;43.316;5.372;2022-07-03T05:21:22;24.40;30.60
73277;DHT22;61501;43.316;5.372;2022-07-03T05:23:47;24.30;31.20
73277;DHT22;61501;43.316;5.372;2022-07-03T05:26:13;24.40;30.50
73277;DHT22;61501;43.316;5.372;2022-07-03T05:28:39;24.40;30.50
73277;DHT22;61501;43.316;5.372;2022-07-03T05:31:04;24.40;30.30
73277;DHT22;61501;43.316;5.372;2022-07-03T05:33:30;24.50;30.10
73277;DHT22;61501;43.316;5.372;2022-07-03T05:35:56;24.40;30.10
73277;DHT22;61501;43.316;5.372;2022-07-03T05:38:23;24.50;31.10
73277;DHT22;61501;43.316;5.372;2022-07-03T05:41:07;24.50;30.60
73277;DHT22;61501;43.316;5.372;2022-07-03T05:43:32;24.50;29.70
73277;DHT22;61501;43.316;5.372;2022-07-03T05:45:58;24.60;29.70
73277;DHT22;61501;43.316;5.372;2022-07-03T05:48:24;24.70;29.50
73277;DHT22;61501;43.316;5.372;2022-07-03T05:50:49;24.70;29.30
73277;DHT22;61501;43.316;5.372;2022-07-03T05:53:16;24.70;29.80
73277;DHT22;61501;43.316;5.372;2022-07-03T05:55:41;24.80;29.50
73277;DHT22;61501;43.316;5.372;2022-07-03T05:58:07;24.90;29.50
73277;DHT22;61501;43.316;5.372;2022-07-03T06:00:33;24.90;29.80
73277;DHT22;61501;43.316;5.372;2022-07-03T06:02:58;25.00;29.10
73277;DHT22;61501;43.316;5.372;2022-07-03T06:05:24;25.00;29.20
73277;DHT22;61501;43.316;5.372;2022-07-03T06:07:51;25.10;28.80
73277;DHT22;61501;43.316;5.372;2022-07-03T06:10:17;25.20;29.60
73277;DHT22;61501;43.316;5.372;2022-07-03T06:12:43;25.30;28.90
73277;DHT22;61501;43.316;5.372;2022-07-03T06:15:08;25.30;29.20
73277;DHT22;61501;43.316;5.372;2022-07-03T06:17:35;25.50;29.50
73277;DHT22;61501;43.316;5.372;2022-07-03T06:20:05;25.60;29.20
73277;DHT22;61501;43.316;5.372;2022-07-03T06:22:32;25.60;29.80
73277;DHT22;61501;43.316;5.372;2022-07-03T06:24:57;25.70;29.10
73277;DHT22;61501;43.316;5.372;2022-07-03T06:27:23;25.70;28.20
73277;DHT22;61501;43.316;5.372;2022-07-03T06:29:49;25.70;27.90
73277;DHT22;61501;43.316;5.372;2022-07-03T06:32:15;25.80;26.90
73277;DHT22;61501;43.316;5.372;2022-07-03T06:34:41;25.80;27.80
73277;DHT22;61501;43.316;5.372;2022-07-03T06:37:10;25.90;27.00
73277;DHT22;61501;43.316;5.372;2022-07-03T06:39:36;26.00;26.80
73277;DHT22;61501;43.316;5.372;2022-07-03T06:42:02;26.00;26.40
73277;DHT22;61501;43.316;5.372;2022-07-03T06:44:28;26.10;26.90
73277;DHT22;61501;43.316;5.372;2022-07-03T06:46:53;26.10;27.50
73277;DHT22;61501;43.316;5.372;2022-07-03T06:49:19;26.20;26.60
73277;DHT22;61501;43.316;5.372;2022-07-03T06:51:45;26.30;26.40
73277;DHT22;61501;43.316;5.372;2022-07-03T06:54:11;26.30;27.00
73277;DHT22;61501;43.316;5.372;2022-07-03T06:56:37;26.40;27.00
73277;DHT22;61501;43.316;5.372;2022-07-03T06:59:03;26.40;26.40
73277;DHT22;61501;43.316;5.372;2022-07-03T07:01:28;26.40;26.10
73277;DHT22;61501;43.316;5.372;2022-07-03T07:03:54;26.30;26.60
73277;DHT22;61501;43.316;5.372;2022-07-03T07:06:20;26.40;26.60
73277;DHT22;61501;43.316;5.372;2022-07-03T07:08:46;26.50;26.90
73277;DHT22;61501;43.316;5.372;2022-07-03T07:11:11;26.60;27.10
73277;DHT22;61501;43.316;5.372;2022-07-03T07:13:37;26.80;27.20
73277;DHT22;61501;43.316;5.372;2022-07-03T07:16:03;26.90;27.00
73277;DHT22;61501;43.316;5.372;2022-07-03T07:18:29;27.00;25.50
73277;DHT22;61501;43.316;5.372;2022-07-03T07:20:54;27.00;25.20
73277;DHT22;61501;43.316;5.372;2022-07-03T07:23:20;27.10;24.90
73277;DHT22;61501;43.316;5.372;2022-07-03T07:25:46;27.10;25.30
73277;DHT22;61501;43.316;5.372;2022-07-03T07:28:11;27.20;25.90
73277;DHT22;61501;43.316;5.372;2022-07-03T07:30:37;27.30;28.60
73277;DHT22;61501;43.316;5.372;2022-07-03T07:33:07;27.30;29.00
73277;DHT22;61501;43.316;5.372;2022-07-03T07:35:33;27.30;28.40
73277;DHT22;61501;43.316;5.372;2022-07-03T07:37:59;27.30;29.00
73277;DHT22;61501;43.316;5.372;2022-07-03T07:40:25;27.30;27.00
73277;DHT22;61501;43.316;5.372;2022-07-03T07:42:50;27.30;26.30
73277;DHT22;61501;43.316;5.372;2022-07-03T07:45:16;27.40;26.70
73277;DHT22;61501;43.316;5.372;2022-07-03T07:47:42;27.40;27.60
73277;DHT22;61501;43.316;5.372;2022-07-03T07:50:08;27.50;26.20
73277;DHT22;61501;43.316;5.372;2022-07-03T07:52:34;27.60;27.70
73277;DHT22;61501;43.316;5.372;2022-07-03T07:55:00;27.60;28.60
73277;DHT22;61501;43.316;5.372;2022-07-03T07:57:55;27.60;29.90
73277;DHT22;61501;43.316;5.372;2022-07-03T08:00:21;27.40;30.90
73277;DHT22;61501;43.316;5.372;2022-07-03T08:02:47;27.30;30.50
73277;DHT22;61501;43.316;5.372;2022-07-03T08:05:32;27.30;31.90
73277;DHT22;61501;43.316;5.372;2022-07-03T08:10:34;26.70;35.50
73277;DHT22;61501;43.316;5.372;2022-07-03T08:13:00;26.70;39.50
73277;DHT22;61501;43.316;5.372;2022-07-03T08:15:26;26.70;41.10
73277;DHT22;61501;43.316;5.372;2022-07-03T08:17:51;26.50;39.50
73277;DHT22;61501;43.316;5.372;2022-07-03T08:20:17;26.50;33.60
73277;DHT22;61501;43.316;5.372;2022-07-03T08:22:42;26.60;33.00
73277;DHT22;61501;43.316;5.372;2022-07-03T08:25:08;26.60;33.20
73277;DHT22;61501;43.316;5.372;2022-07-03T08:27:34;26.50;34.40
73277;DHT22;61501;43.316;5.372;2022-07-03T08:29:59;26.30;35.60
73277;DHT22;61501;43.316;5.372;2022-07-03T08:32:25;26.20;33.50
73277;DHT22;61501;43.316;5.372;2022-07-03T08:34:51;26.30;32.90
73277;DHT22;61501;43.316;5.372;2022-07-03T08:37:16;26.30;33.70
73277;DHT22;61501;43.316;5.372;2022-07-03T08:39:42;26.30;32.70
73277;DHT22;61501;43.316;5.372;2022-07-03T08:42:11;26.30;34.90
73277;DHT22;61501;43.316;5.372;2022-07-03T08:44:37;26.20;35.10
73277;DHT22;61501;43.316;5.372;2022-07-03T08:47:03;26.10;35.80
73277;DHT22;61501;43.316;5.372;2022-07-03T08:49:32;26.10;39.70
73277;DHT22;61501;43.316;5.372;2022-07-03T08:52:00;26.10;40.80
73277;DHT22;61501;43.316;5.372;2022-07-03T08:54:26;25.90;45.50
73277;DHT22;61501;43.316;5.372;2022-07-03T08:56:52;25.90;48.10
73277;DHT22;61501;43.316;5.372;2022-07-03T08:59:20;25.90;47.50
73277;DHT22;61501;43.316;5.372;2022-07-03T09:01:46;26.00;50.50
73277;DHT22;61501;43.316;5.372;2022-07-03T09:04:12;26.10;48.70
73277;DHT22;61501;43.316;5.372;2022-07-03T09:06:42;26.10;48.60
73277;DHT22;61501;43.316;5.372;2022-07-03T09:09:08;26.20;49.30
73277;DHT22;61501;43.316;5.372;2022-07-03T09:11:36;26.00;50.40
73277;DHT22;61501;43.316;5.372;2022-07-03T09:14:03;25.90;50.30
73277;DHT22;61501;43.316;5.372;2022-07-03T09:16:34;25.90;50.00
73277;DHT22;61501;43.316;5.372;2022-07-03T09:19:00;25.90;50.30
73277;DHT22;61501;43.316;5.372;2022-07-03T09:21:38;25.90;51.80
73277;DHT22;61501;43.316;5.372;2022-07-03T09:24:09;25.90;51.70
73277;DHT22;61501;43.316;5.372;2022-07-03T09:26:36;26.10;49.80
73277;DHT22;61501;43.316;5.372;2022-07-03T09:29:02;26.10;50.40
73277;DHT22;61501;43.316;5.372;2022-07-03T09:31:30;26.00;49.80
73277;DHT22;61501;43.316;5.372;2022-07-03T09:34:03;26.00;50.40
73277;DHT22;61501;43.316;5.372;2022-07-03T09:36:47;25.80;48.80
73277;DHT22;61501;43.316;5.372;2022-07-03T09:39:16;25.80;50.40
73277;DHT22;61501;43.316;5.372;2022-07-03T09:42:03;26.00;49.60
73277;DHT22;61501;43.316;5.372;2022-07-03T09:47:11;26.20;49.20
73277;DHT22;61501;43.316;5.372;2022-07-03T09:49:50;26.30;49.70
73277;DHT22;61501;43.316;5.372;2022-07-03T09:52:27;26.40;50.00
73277;DHT22;61501;43.316;5.372;2022-07-03T09:54:58;26.40;48.70
73277;DHT22;61501;43.316;5.372;2022-07-03T09:57:24;26.40;49.20
73277;DHT22;61501;43.316;5.372;2022-07-03T10:02:33;26.30;46.90
73277;DHT22;61501;43.316;5.372;2022-07-03T10:05:13;26.20;48.30
73277;DHT22;61501;43.316;5.372;2022-07-03T10:07:58;26.10;48.70
73277;DHT22;61501;43.316;5.372;2022-07-03T10:10:26;26.30;49.10
73277;DHT22;61501;43.316;5.372;2022-07-03T10:12:53;26.30;50.30
73277;DHT22;61501;43.316;5.372;2022-07-03T10:15:20;26.30;48.90
73277;DHT22;61501;43.316;5.372;2022-07-03T10:17:57;26.20;47.50
73277;DHT22;61501;43.316;5.372;2022-07-03T10:20:41;26.30;47.50
73277;DHT22;61501;43.316;5.372;2022-07-03T10:23:11;26.50;47.60
73277;DHT22;61501;43.316;5.372;2022-07-03T10:25:40;26.50;47.50
73277;DHT22;61501;43.316;5.372;2022-07-03T10:28:06;26.50;48.20
73277;DHT22;61501;43.316;5.372;2022-07-03T10:30:32;26.40;49.10
73277;DHT22;61501;43.316;5.372;2022-07-03T10:32:59;26.50;49.10
73277;DHT22;61501;43.316;5.372;2022-07-03T10:35:34;26.30;47.30
73277;DHT22;61501;43.316;5.372;2022-07-03T10:44:13;26.80;47.40
73277;DHT22;61501;43.316;5.372;2022-07-03T10:46:57;26.70;46.80
73277;DHT22;61501;43.316;5.372;2022-07-03T10:49:23;26.90;46.80
73277;DHT22;61501;43.316;5.372;2022-07-03T10:51:55;27.00;46.10
73277;DHT22;61501;43.316;5.372;2022-07-03T11:02:31;26.90;46.80
73277;DHT22;61501;43.316;5.372;2022-07-03T11:15:30;26.80;45.80
73277;DHT22;61501;43.316;5.372;2022-07-03T11:36:31;26.60;50.00
73277;DHT22;61501;43.316;5.372;2022-07-03T11:41:25;26.60;51.30
73277;DHT22;61501;43.316;5.372;2022-07-03T11:43:52;26.70;51.80
73277;DHT22;61501;43.316;5.372;2022-07-03T11:46:23;26.50;51.80
73277;DHT22;61501;43.316;5.372;2022-07-03T11:48:49;26.50;54.30
73277;DHT22;61501;43.316;5.372;2022-07-03T11:51:16;26.40;54.20
73277;DHT22;61501;43.316;5.372;2022-07-03T11:53:42;26.30;54.20
73277;DHT22;61501;43.316;5.372;2022-07-03T11:56:09;26.40;55.50
73277;DHT22;61501;43.316;5.372;2022-07-03T11:58:49;26.50;56.50
73277;DHT22;61501;43.316;5.372;2022-07-03T12:03:54;26.50;57.20
73277;DHT22;61501;43.316;5.372;2022-07-03T12:06:35;26.50;56.70
73277;DHT22;61501;43.316;5.372;2022-07-03T12:09:02;27.20;54.50
73277;DHT22;61501;43.316;5.372;2022-07-03T12:11:28;27.60;53.00
73277;DHT22;61501;43.316;5.372;2022-07-03T12:13:54;28.10;52.00
73277;DHT22;61501;43.316;5.372;2022-07-03T12:16:32;28.70;49.40
73277;DHT22;61501;43.316;5.372;2022-07-03T12:19:03;29.20;48.90
73277;DHT22;61501;43.316;5.372;2022-07-03T12:21:35;29.60;45.60
73277;DHT22;61501;43.316;5.372;2022-07-03T12:24:08;29.80;44.70
73277;DHT22;61501;43.316;5.372;2022-07-03T12:26:35;30.60;43.40
73277;DHT22;61501;43.316;5.372;2022-07-03T12:29:04;30.90;44.50
73277;DHT22;61501;43.316;5.372;2022-07-03T12:31:31;30.70;44.30
73277;DHT22;61501;43.316;5.372;2022-07-03T12:33:58;30.60;42.30
73277;DHT22;61501;43.316;5.372;2022-07-03T12:36:24;30.60;39.60
73277;DHT22;61501;43.316;5.372;2022-07-03T12:38:55;30.70;36.60
73277;DHT22;61501;43.316;5.372;2022-07-03T12:41:21;30.80;36.70
73277;DHT22;61501;43.316;5.372;2022-07-03T12:43:49;30.90;36.80
73277;DHT22;61501;43.316;5.372;2022-07-03T12:48:58;30.70;35.70
73277;DHT22;61501;43.316;5.372;2022-07-03T12:54:17;30.60;34.70
73277;DHT22;61501;43.316;5.372;2022-07-03T12:57:03;30.80;37.20
73277;DHT22;61501;43.316;5.372;2022-07-03T13:00:02;31.00;38.10
73277;DHT22;61501;43.316;5.372;2022-07-03T13:02:29;31.50;37.60
73277;DHT22;61501;43.316;5.372;2022-07-03T13:04:54;31.70;37.80
73277;DHT22;61501;43.316;5.372;2022-07-03T13:07:20;31.50;36.30
73277;DHT22;61501;43.316;5.372;2022-07-03T13:09:52;31.30;36.90
73277;DHT22;61501;43.316;5.372;2022-07-03T13:12:22;30.50;38.60
73277;DHT22;61501;43.316;5.372;2022-07-03T13:15:01;30.40;38.10
73277;DHT22;61501;43.316;5.372;2022-07-03T13:17:50;29.90;39.50
73277;DHT22;61501;43.316;5.372;2022-07-03T13:20:15;30.80;36.80
73277;DHT22;61501;43.316;5.372;2022-07-03T13:22:41;30.50;32.90
73277;DHT22;61501;43.316;5.372;2022-07-03T13:25:07;30.20;35.10
73277;DHT22;61501;43.316;5.372;2022-07-03T13:27:33;29.80;38.20
73277;DHT22;61501;43.316;5.372;2022-07-03T13:29:59;29.60;37.60
73277;DHT22;61501;43.316;5.372;2022-07-03T13:32:24;29.70;37.20
73277;DHT22;61501;43.316;5.372;2022-07-03T13:34:50;30.20;37.80
73277;DHT22;61501;43.316;5.372;2022-07-03T13:37:15;29.40;38.50
73277;DHT22;61501;43.316;5.372;2022-07-03T13:39:41;29.50;36.50
73277;DHT22;61501;43.316;5.372;2022-07-03T13:42:07;29.00;36.80
73277;DHT22;61501;43.316;5.372;2022-07-03T13:44:38;29.00;35.50
73277;DHT22;61501;43.316;5.372;2022-07-03T13:47:05;29.50;41.00
73277;DHT22;61501;43.316;5.372;2022-07-03T13:49:31;29.80;38.70
73277;DHT22;61501;43.316;5.372;2022-07-03T13:51:58;30.00;38.10
73277;DHT22;61501;43.316;5.372;2022-07-03T13:54:23;30.40;33.70
73277;DHT22;61501;43.316;5.372;2022-07-03T13:56:49;30.30;38.80
73277;DHT22;61501;43.316;5.372;2022-07-03T13:59:15;30.30;36.70
73277;DHT22;61501;43.316;5.372;2022-07-03T14:01:41;30.70;37.60
73277;DHT22;61501;43.316;5.372;2022-07-03T14:04:06;31.20;36.10
73277;DHT22;61501;43.316;5.372;2022-07-03T14:06:32;31.30;33.40
73277;DHT22;61501;43.316;5.372;2022-07-03T14:08:58;31.70;32.30
73277;DHT22;61501;43.316;5.372;2022-07-03T14:11:23;32.30;33.80
73277;DHT22;61501;43.316;5.372;2022-07-03T14:13:49;32.00;33.20
73277;DHT22;61501;43.316;5.372;2022-07-03T14:16:14;31.70;31.50
73277;DHT22;61501;43.316;5.372;2022-07-03T14:18:40;31.60;32.80
73277;DHT22;61501;43.316;5.372;2022-07-03T14:21:06;31.70;32.90
73277;DHT22;61501;43.316;5.372;2022-07-03T14:23:32;30.90;32.60
73277;DHT22;61501;43.316;5.372;2022-07-03T14:25:58;30.60;36.10
73277;DHT22;61501;43.316;5.372;2022-07-03T14:28:24;30.90;35.90
73277;DHT22;61501;43.316;5.372;2022-07-03T14:31:09;31.10;36.20
73277;DHT22;61501;43.316;5.372;2022-07-03T14:33:43;31.50;35.20
73277;DHT22;61501;43.316;5.372;2022-07-03T14:36:09;31.70;35.10
73277;DHT22;61501;43.316;5.372;2022-07-03T14:38:34;31.90;35.80
73277;DHT22;61501;43.316;5.372;2022-07-03T14:41:00;31.80;33.40
73277;DHT22;61501;43.316;5.372;2022-07-03T14:43:25;32.30;33.60
73277;DHT22;61501;43.316;5.372;2022-07-03T14:45:51;32.50;32.50
73277;DHT22;61501;43.316;5.372;2022-07-03T14:48:17;32.90;31.30
73277;DHT22;61501;43.316;5.372;2022-07-03T14:50:42;32.70;32.30
73277;DHT22;61501;43.316;5.372;2022-07-03T14:53:08;32.90;31.80
73277;DHT22;61501;43.316;5.372;2022-07-03T14:55:37;32.70;30.90
73277;DHT22;61501;43.316;5.372;2022-07-03T14:58:20;32.00;32.60
73277;DHT22;61501;43.316;5.372;2022-07-03T15:00:52;31.60;33.40
73277;DHT22;61501;43.316;5.372;2022-07-03T15:03:29;32.00;32.30
73277;DHT22;61501;43.316;5.372;2022-07-03T15:06:00;32.30;30.80
73277;DHT22;61501;43.316;5.372;2022-07-03T15:08:34;32.80;30.10
73277;DHT22;61501;43.316;5.372;2022-07-03T15:11:12;33.20;29.90
73277;DHT22;61501;43.316;5.372;2022-07-03T15:14:02;33.50;30.00
73277;DHT22;61501;43.316;5.372;2022-07-03T15:16:30;33.50;30.40
73277;DHT22;61501;43.316;5.372;2022-07-03T15:18:59;33.30;30.00
73277;DHT22;61501;43.316;5.372;2022-07-03T15:21:26;33.20;30.00
73277;DHT22;61501;43.316;5.372;2022-07-03T15:23:53;33.10;30.20
73277;DHT22;61501;43.316;5.372;2022-07-03T15:26:20;33.30;29.60
73277;DHT22;61501;43.316;5.372;2022-07-03T15:28:46;33.30;29.80
73277;DHT22;61501;43.316;5.372;2022-07-03T15:31:12;33.20;29.50
73277;DHT22;61501;43.316;5.372;2022-07-03T15:33:38;33.10;29.60
73277;DHT22;61501;43.316;5.372;2022-07-03T15:36:04;33.10;28.90
73277;DHT22;61501;43.316;5.372;2022-07-03T15:38:45;33.30;29.30
73277;DHT22;61501;43.316;5.372;2022-07-03T15:41:22;33.40;28.80
73277;DHT22;61501;43.316;5.372;2022-07-03T15:43:57;33.20;29.20
73277;DHT22;61501;43.316;5.372;2022-07-03T15:49:31;33.30;28.80
73277;DHT22;61501;43.316;5.372;2022-07-03T15:57:34;32.40;32.40
73277;DHT22;61501;43.316;5.372;2022-07-03T16:00:13;32.50;32.80
73277;DHT22;61501;43.316;5.372;2022-07-03T16:05:14;33.10;32.70
73277;DHT22;61501;43.316;5.372;2022-07-03T16:07:43;33.00;32.50
73277;DHT22;61501;43.316;5.372;2022-07-03T16:10:10;33.30;32.30
73277;DHT22;61501;43.316;5.372;2022-07-03T16:12:38;33.40;32.20
73277;DHT22;61501;43.316;5.372;2022-07-03T16:15:05;33.40;32.30
73277;DHT22;61501;43.316;5.372;2022-07-03T16:17:32;33.50;31.60
73277;DHT22;61501;43.316;5.372;2022-07-03T16:20:05;33.60;31.80
73277;DHT22;61501;43.316;5.372;2022-07-03T16:22:34;33.70;31.30
73277;DHT22;61501;43.316;5.372;2022-07-03T16:25:02;34.10;31.50
73277;DHT22;61501;43.316;5.372;2022-07-03T16:27:28;33.40;32.50
73277;DHT22;61501;43.316;5.372;2022-07-03T16:29:54;33.40;32.90
73277;DHT22;61501;43.316;5.372;2022-07-03T16:32:28;33.80;31.40
73277;DHT22;61501;43.316;5.372;2022-07-03T16:35:03;33.90;31.70
73277;DHT22;61501;43.316;5.372;2022-07-03T16:37:48;33.50;32.20
73277;DHT22;61501;43.316;5.372;2022-07-03T16:40:14;33.10;34.30
73277;DHT22;61501;43.316;5.372;2022-07-03T16:42:44;32.80;34.60
73277;DHT22;61501;43.316;5.372;2022-07-03T16:45:11;32.80;34.20
73277;DHT22;61501;43.316;5.372;2022-07-03T16:47:48;32.30;35.80
73277;DHT22;61501;43.316;5.372;2022-07-03T16:50:22;32.20;36.00
73277;DHT22;61501;43.316;5.372;2022-07-03T16:52:51;32.00;36.90
73277;DHT22;61501;43.316;5.372;2022-07-03T16:55:19;31.30;37.50
73277;DHT22;61501;43.316;5.372;2022-07-03T16:57:55;31.10;38.10
73277;DHT22;61501;43.316;5.372;2022-07-03T17:00:23;31.10;38.10
73277;DHT22;61501;43.316;5.372;2022-07-03T17:02:50;31.10;38.70
73277;DHT22;61501;43.316;5.372;2022-07-03T17:05:18;30.90;40.10
73277;DHT22;61501;43.316;5.372;2022-07-03T17:07:47;31.10;40.00
73277;DHT22;61501;43.316;5.372;2022-07-03T17:10:15;31.70;38.70
73277;DHT22;61501;43.316;5.372;2022-07-03T17:12:44;32.10;38.10
73277;DHT22;61501;43.316;5.372;2022-07-03T17:15:11;31.90;38.40
73277;DHT22;61501;43.316;5.372;2022-07-03T17:17:49;31.50;38.20
73277;DHT22;61501;43.316;5.372;2022-07-03T17:20:22;31.20;38.90
73277;DHT22;61501;43.316;5.372;2022-07-03T17:23:02;31.20;39.20
73277;DHT22;61501;43.316;5.372;2022-07-03T17:25:38;31.20;39.70
73277;DHT22;61501;43.316;5.372;2022-07-03T17:28:04;31.20;39.20
73277;DHT22;61501;43.316;5.372;2022-07-03T17:30:45;31.10;39.40
73277;DHT22;61501;43.316;5.372;2022-07-03T17:33:13;31.00;40.90